This is the latest recevied weather packets stored in our database for station/object GW1492. If no packets are shown the sender has not sent any weather packets the latest 10 day(s).
| Time | Temp. | Humidity | Pressure | Rain* | Wind** | Luminosity | Snow |
|---|---|---|---|---|---|---|---|
| 1777605170 | 6.11° C | 83% | 1017.6 hPa | 0 mm | - | - | - |
| 1777604801 | 6.11° C | 82% | 1017.2 hPa | 0 mm | - | - | - |
| 1777602278 | 7.22° C | 80% | 1017.6 hPa | 0 mm | - | - | - |
| 1777600495 | 7.78° C | 80% | 1017.2 hPa | 0 mm | - | - | - |
| 1777598332 | 7.78° C | 79% | 1016.5 hPa | 0 mm | - | - | - |
| 1777595807 | 9.44° C | 71% | 1016.2 hPa | 0 mm | - | - | - |
| 1777592921 | 11.11° C | 60% | 1015.5 hPa | 0 mm | - | - | - |
| 1777590413 | 12.22° C | 48% | 1015.2 hPa | 0 mm | - | - | - |
| 1777588951 | 12.78° C | 48% | 1014.9 hPa | 0 mm | - | - | - |
| 1777584619 | 13.33° C | 45% | 1014.9 hPa | 0 mm | - | - | - |
| 1777583566 | 13.33° C | 43% | 1015.2 hPa | 0 mm | - | - | - |
| 1777573462 | 15° C | 45% | 1015.5 hPa | 0 mm | - | - | - |
| 1777573123 | 14.44° C | 51% | 1015.5 hPa | 0 mm | - | - | - |
| 1777568074 | 14.44° C | 53% | 1016.2 hPa | 0 mm | - | - | - |
| 1777564853 | 13.89° C | 62% | 1015.9 hPa | 0 mm | - | - | - |
| 1777564461 | 13.89° C | 65% | 1015.9 hPa | 0 mm | - | - | - |
| 1777555119 | 9.44° C | 76% | 1016.2 hPa | 0 mm | - | - | - |
| 1777554031 | 8.89° C | 75% | 1015.9 hPa | 0 mm | - | - | - |
| 1777552218 | 9.44° C | 87% | 1015.5 hPa | 0 mm | - | - | - |
| 1777547554 | 9.44° C | 90% | 1014.5 hPa | 0 mm | - | - | - |
| 1777543972 | 10° C | 90% | 1013.8 hPa | 0 mm | - | - | - |
| 1777541793 | 10° C | 91% | 1013.5 hPa | 0 mm | - | - | - |
| 1777541092 | 10.56° C | 90% | 1013.5 hPa | 0 mm | - | - | - |
| 1777539636 | 10.56° C | 91% | 1012.5 hPa | 0 mm | - | - | - |
| 1777533490 | 10° C | 94% | 1013.8 hPa | 0 mm | - | - | - |
* Rain since midnight (hover to see other rain measurements)
** Current wind speed in m/s (hover to see current wind gust speed)